Time;durP1;ratioP1;P1;durP2;ratioP2;P2;SDS_P1;SDS_P2;PMS_P1;PMS_P2;Temp;Humidity;BMP_temperature;BMP_pressure;BME280_temperature;BME280_humidity;BME280_pressure;Samples;Min_cycle;Max_cycle;Signal;HPM_P1;HPM_P2
2022/05/09 00:01:48;;;;;;;0.35;0.30;;;20.70;50.60;;;;;;6272045;28;20032;-72
2022/05/09 00:04:49;;;;;;;0.57;0.40;;;20.80;50.60;;;;;;6253919;28;20696;-72
2022/05/09 00:07:50;;;;;;;0.75;0.55;;;20.70;50.60;;;;;;6271796;28;20021;-71
2022/05/09 00:10:50;;;;;;;0.43;0.40;;;20.70;50.60;;;;;;6271771;28;20045;-72
2022/05/09 00:13:52;;;;;;;0.40;0.40;;;20.70;50.70;;;;;;6254031;28;20143;-72
2022/05/09 00:16:53;;;;;;;0.40;0.40;;;20.70;50.70;;;;;;6271676;28;20032;-71
2022/05/09 00:19:54;;;;;;;1.35;0.50;;;20.70;50.70;;;;;;6253263;28;20512;-72
2022/05/09 00:22:55;;;;;;;0.75;0.40;;;20.70;50.70;;;;;;6253492;28;20083;-71
2022/05/09 00:25:56;;;;;;;0.40;0.30;;;20.70;50.70;;;;;;6253439;28;20024;-71
2022/05/09 00:28:57;;;;;;;0.40;0.30;;;20.70;50.80;;;;;;6253704;28;20368;-71
2022/05/09 00:31:58;;;;;;;0.57;0.50;;;20.70;50.80;;;;;;6253498;28;20028;-71
2022/05/09 00:34:59;;;;;;;0.40;0.40;;;20.70;50.80;;;;;;6253198;28;20052;-71
2022/05/09 00:37:59;;;;;;;0.80;0.40;;;20.70;50.80;;;;;;6271278;28;20528;-71
2022/05/09 00:44:27;;;;;;;0.65;0.38;;;20.70;50.80;;;;;;6270776;28;20021;-71
2022/05/09 00:47:28;;;;;;;0.52;0.40;;;20.70;50.90;;;;;;6270890;28;20013;-72
2022/05/09 00:50:31;;;;;;;0.88;0.50;;;20.70;50.80;;;;;;6271129;28;20075;-72
2022/05/09 00:53:34;;;;;;;0.40;0.40;;;20.70;50.90;;;;;;6270390;28;20024;-71
2022/05/09 00:56:46;;;;;;;0.60;0.40;;;20.70;50.80;;;;;;6270771;28;20059;-71
2022/05/09 00:59:50;;;;;;;1.05;0.50;;;20.70;50.80;;;;;;6269207;28;20395;-71
2022/05/09 01:02:59;;;;;;;0.73;0.47;;;20.70;50.90;;;;;;6270279;28;20171;-71
2022/05/09 01:05:59;;;;;;;0.63;0.43;;;20.70;50.80;;;;;;6270480;28;20025;-71
2022/05/09 01:09:00;;;;;;;0.75;0.45;;;20.70;50.80;;;;;;6252058;28;20087;-72
2022/05/09 01:12:02;;;;;;;0.52;0.40;;;20.70;50.90;;;;;;6270135;28;20491;-72
2022/05/09 01:15:07;;;;;;;0.55;0.40;;;20.70;50.90;;;;;;6252203;28;20021;-71
2022/05/09 01:18:10;;;;;;;1.10;0.47;;;20.70;50.90;;;;;;6270034;28;20033;-71
2022/05/09 01:21:36;;;;;;;0.38;0.38;;;20.70;50.90;;;;;;6270494;28;20017;-71
2022/05/09 01:24:36;;;;;;;1.05;0.40;;;20.70;50.90;;;;;;6251556;28;20025;-71
2022/05/09 01:27:41;;;;;;;0.30;0.30;;;20.70;50.90;;;;;;6269964;28;20404;-71
2022/05/09 01:31:02;;;;;;;0.50;0.30;;;20.70;50.90;;;;;;6252024;28;20036;-71
2022/05/09 01:34:03;;;;;;;0.65;0.30;;;20.70;50.90;;;;;;6251796;28;20029;-71
2022/05/09 01:37:07;;;;;;;0.30;0.30;;;20.60;50.80;;;;;;6251688;28;20490;-71
2022/05/09 01:40:08;;;;;;;0.65;0.40;;;20.60;50.80;;;;;;6251664;28;20021;-71
2022/05/09 01:43:09;;;;;;;0.30;0.30;;;20.70;50.90;;;;;;6251538;28;20491;-72
2022/05/09 01:46:16;;;;;;;0.70;0.30;;;20.70;50.90;;;;;;6251642;28;20028;-71
2022/05/09 01:49:31;;;;;;;1.13;0.47;;;20.70;50.90;;;;;;6251489;28;20024;-70
2022/05/09 01:52:32;;;;;;;0.38;0.38;;;20.60;50.80;;;;;;6269478;28;20028;-71
2022/05/09 01:55:33;;;;;;;0.45;0.43;;;20.60;50.80;;;;;;6250415;28;20388;-70
2022/05/09 01:58:33;;;;;;;0.40;0.40;;;20.70;50.90;;;;;;6251510;28;20025;-70
2022/05/09 02:01:43;;;;;;;0.40;0.30;;;20.70;50.90;;;;;;6251180;28;20368;-69
2022/05/09 02:04:43;;;;;;;1.40;0.55;;;20.60;50.90;;;;;;6269350;28;20013;-71
2022/05/09 02:07:45;;;;;;;0.73;0.50;;;20.70;50.90;;;;;;6250887;28;20017;-71
2022/05/09 02:10:46;;;;;;;0.40;0.40;;;20.60;50.90;;;;;;6250865;28;20075;-69
2022/05/09 02:13:46;;;;;;;0.50;0.43;;;20.60;51.60;;;;;;6251135;28;20044;-71
2022/05/09 02:16:47;;;;;;;0.65;0.50;;;20.60;50.90;;;;;;6250865;28;20027;-72
2022/05/09 02:19:48;;;;;;;0.57;0.45;;;20.60;50.80;;;;;;6250830;28;20450;-71
2022/05/09 02:22:49;;;;;;;0.40;0.40;;;20.60;50.90;;;;;;6251120;28;20111;-71
2022/05/09 02:25:50;;;;;;;1.02;0.50;;;20.60;50.90;;;;;;6268328;28;20588;-69
2022/05/09 02:28:51;;;;;;;1.00;0.50;;;20.60;50.90;;;;;;6268516;28;20060;-70
2022/05/09 02:31:52;;;;;;;0.77;0.60;;;20.60;50.90;;;;;;6250818;28;20069;-68
2022/05/09 02:34:53;;;;;;;1.08;0.50;;;20.60;50.90;;;;;;6268678;28;20025;-68
2022/05/09 02:37:54;;;;;;;0.65;0.40;;;20.60;50.90;;;;;;6268606;28;20021;-67
2022/05/09 02:40:56;;;;;;;0.52;0.38;;;20.60;50.90;;;;;;6250669;28;20165;-68
2022/05/09 02:43:58;;;;;;;0.77;0.30;;;20.60;50.90;;;;;;6268123;28;20488;-69
2022/05/09 02:46:59;;;;;;;1.08;0.50;;;20.60;50.90;;;;;;6268970;28;20498;-69
2022/05/09 02:50:00;;;;;;;0.57;0.50;;;20.60;50.90;;;;;;6268319;28;20029;-71
2022/05/09 02:53:00;;;;;;;0.40;0.40;;;20.60;50.90;;;;;;6250391;28;20064;-71
2022/05/09 02:56:02;;;;;;;0.63;0.50;;;20.60;50.90;;;;;;6268001;28;20377;-71
2022/05/09 02:59:03;;;;;;;0.75;0.50;;;20.60;50.90;;;;;;6267800;28;20063;-67
2022/05/09 03:02:03;;;;;;;0.63;0.40;;;20.60;50.90;;;;;;6267594;28;20024;-67
2022/05/09 03:05:05;;;;;;;0.47;0.40;;;20.60;50.90;;;;;;6269185;28;20098;-67
2022/05/09 03:08:07;;;;;;;1.20;0.50;;;20.60;50.90;;;;;;6273067;28;20656;-67
2022/05/09 03:11:07;;;;;;;0.50;0.40;;;20.60;50.90;;;;;;6271266;28;20048;-67
2022/05/09 03:14:08;;;;;;;0.30;0.30;;;20.60;50.90;;;;;;6271399;28;20029;-68
2022/05/09 03:17:09;;;;;;;0.90;0.50;;;20.60;50.90;;;;;;6272466;28;20036;-67
2022/05/09 03:20:10;;;;;;;0.68;0.50;;;20.60;51.00;;;;;;6272526;28;20031;-67
2022/05/09 03:23:10;;;;;;;1.15;0.52;;;20.60;50.90;;;;;;6272469;28;20021;-67
2022/05/09 03:26:11;;;;;;;0.50;0.50;;;20.60;50.90;;;;;;6272381;28;20537;-67
2022/05/09 03:29:13;;;;;;;0.50;0.40;;;20.60;50.90;;;;;;6271932;28;20060;-67
2022/05/09 03:32:13;;;;;;;0.75;0.40;;;20.60;50.90;;;;;;6272035;28;20086;-67
2022/05/09 03:35:17;;;;;;;0.40;0.40;;;20.60;50.90;;;;;;6272334;28;20029;-66
2022/05/09 03:38:18;;;;;;;2.38;0.43;;;20.60;50.90;;;;;;6272351;28;20036;-67
2022/05/09 03:41:20;;;;;;;1.35;0.47;;;20.60;50.90;;;;;;6271767;28;20032;-67
2022/05/09 03:44:21;;;;;;;0.38;0.38;;;20.60;51.00;;;;;;6253794;28;20025;-67
2022/05/09 03:47:21;;;;;;;0.68;0.43;;;20.60;50.90;;;;;;6271711;28;20140;-67
2022/05/09 03:50:23;;;;;;;0.98;0.63;;;20.60;51.00;;;;;;6271801;28;20088;-67
2022/05/09 03:53:24;;;;;;;0.38;0.38;;;20.60;51.00;;;;;;6271472;28;20028;-67
2022/05/09 03:56:25;;;;;;;0.98;0.60;;;20.60;50.90;;;;;;6271477;28;20024;-67
2022/05/09 03:59:25;;;;;;;1.05;0.50;;;20.60;50.90;;;;;;6271321;28;20021;-67
2022/05/09 04:02:26;;;;;;;0.75;0.50;;;20.60;50.90;;;;;;6271203;28;20028;-67
2022/05/09 04:05:30;;;;;;;0.52;0.40;;;20.60;51.00;;;;;;6271226;28;20025;-68
2022/05/09 04:08:31;;;;;;;0.88;0.30;;;20.60;51.00;;;;;;6253514;28;20159;-68
2022/05/09 04:11:32;;;;;;;0.77;0.50;;;20.60;51.00;;;;;;6253213;28;20144;-68
2022/05/09 04:17:53;;;;;;;0.82;0.55;;;20.60;50.90;;;;;;6270507;28;20029;-67
2022/05/09 04:20:54;;;;;;;0.32;0.32;;;20.60;51.00;;;;;;6252691;28;20076;-67
2022/05/09 04:23:58;;;;;;;1.05;0.50;;;20.60;51.00;;;;;;6270908;28;20396;-67
2022/05/09 04:27:00;;;;;;;1.15;0.57;;;20.60;51.00;;;;;;6270929;28;20021;-68
2022/05/09 04:30:01;;;;;;;0.45;0.40;;;20.60;51.00;;;;;;6270483;28;20384;-67
2022/05/09 04:33:04;;;;;;;0.82;0.43;;;20.60;51.10;;;;;;6270707;28;20087;-68
2022/05/09 04:36:05;;;;;;;0.82;0.40;;;20.60;51.00;;;;;;6270424;28;20170;-67
2022/05/09 04:39:06;;;;;;;1.05;0.40;;;20.60;51.00;;;;;;6269214;28;20029;-67
2022/05/09 04:42:08;;;;;;;0.90;0.45;;;20.60;50.90;;;;;;6252341;28;20029;-67
2022/05/09 04:45:10;;;;;;;0.93;0.40;;;20.60;50.90;;;;;;6252376;28;20031;-67
2022/05/09 04:48:11;;;;;;;0.77;0.60;;;20.60;50.90;;;;;;6270730;28;20021;-67
2022/05/09 04:51:12;;;;;;;0.32;0.32;;;20.60;50.90;;;;;;6252129;28;20024;-67
2022/05/09 04:54:14;;;;;;;1.02;0.52;;;20.60;51.00;;;;;;6270273;28;20033;-67
2022/05/09 04:57:15;;;;;;;0.43;0.40;;;20.60;51.00;;;;;;6270341;28;20112;-67
2022/05/09 05:00:41;;;;;;;0.80;0.50;;;20.60;51.00;;;;;;6252430;28;20025;-67
2022/05/09 05:03:41;;;;;;;;;;;20.60;51.00;;;;;;6246583;28;20030;-67
2022/05/09 05:06:42;;;;;;;0.52;0.30;;;20.60;51.00;;;;;;6243838;28;19905;-66
2022/05/09 05:09:42;;;;;;;0.50;0.40;;;20.60;51.00;;;;;;6245019;28;20087;-67
2022/05/09 05:12:43;;;;;;;0.90;0.50;;;20.60;51.10;;;;;;6227067;28;20026;-67
2022/05/09 05:15:47;;;;;;;0.80;0.40;;;20.60;51.10;;;;;;6244997;28;20025;-67
2022/05/09 05:18:50;;;;;;;2.05;0.63;;;20.60;51.10;;;;;;6245256;28;20117;-67
2022/05/09 05:21:51;;;;;;;0.70;0.50;;;20.60;51.10;;;;;;6244924;28;20120;-67
2022/05/09 05:24:54;;;;;;;0.40;0.38;;;20.60;51.10;;;;;;6227032;28;20025;-67
2022/05/09 05:27:56;;;;;;;0.50;0.50;;;20.60;51.00;;;;;;6245663;28;20017;-66
2022/05/09 05:31:10;;;;;;;0.40;0.40;;;20.60;51.10;;;;;;6255080;28;20025;-67
2022/05/09 05:34:11;;;;;;;1.25;0.60;;;20.60;51.10;;;;;;6227054;28;20021;-67
2022/05/09 05:37:11;;;;;;;0.90;0.60;;;20.60;51.20;;;;;;6244750;28;20484;-66
2022/05/09 05:40:13;;;;;;;0.73;0.47;;;20.60;51.10;;;;;;6251733;28;20060;-68
2022/05/09 05:43:14;;;;;;;0.77;0.45;;;20.60;51.90;;;;;;6263218;28;20111;-67
2022/05/09 05:46:15;;;;;;;0.95;0.40;;;20.60;51.20;;;;;;6267851;28;20394;-67
2022/05/09 05:49:15;;;;;;;0.70;0.50;;;20.60;51.10;;;;;;6268336;28;20032;-67
2022/05/09 05:52:17;;;;;;;0.77;0.50;;;20.60;51.10;;;;;;6267976;28;20033;-67
2022/05/09 05:55:19;;;;;;;1.45;0.57;;;20.60;51.20;;;;;;6249854;28;20119;-67
2022/05/09 05:58:19;;;;;;;1.40;0.50;;;20.60;51.30;;;;;;6267149;28;20105;-66
2022/05/09 06:01:22;;;;;;;1.38;0.60;;;20.70;51.40;;;;;;6253265;28;20037;-66
2022/05/09 06:04:23;;;;;;;1.55;0.52;;;20.70;51.60;;;;;;6242082;28;20013;-67
2022/05/09 06:07:24;;;;;;;0.82;0.50;;;20.70;51.40;;;;;;6253847;28;20028;-67
2022/05/09 06:10:26;;;;;;;0.95;0.60;;;20.70;51.30;;;;;;6247660;28;20053;-67
2022/05/09 06:13:27;;;;;;;0.63;0.40;;;20.70;51.40;;;;;;6269567;28;20021;-67
2022/05/09 06:16:27;;;;;;;0.82;0.40;;;20.70;51.20;;;;;;6269159;28;20036;-67
2022/05/09 06:19:28;;;;;;;1.15;0.63;;;20.70;51.10;;;;;;6269702;28;20025;-67
2022/05/09 06:22:28;;;;;;;1.10;0.52;;;20.70;51.00;;;;;;6251251;28;20723;-66
2022/05/09 06:25:31;;;;;;;1.95;0.68;;;20.80;51.10;;;;;;6269333;28;20083;-66
2022/05/09 06:28:31;;;;;;;1.52;0.50;;;20.80;51.00;;;;;;6269278;28;20017;-67
2022/05/09 06:31:34;;;;;;;1.33;0.50;;;20.80;51.00;;;;;;6250020;28;20039;-67
2022/05/09 06:34:35;;;;;;;0.75;0.50;;;20.80;51.00;;;;;;6244902;28;20052;-66
2022/05/09 06:37:38;;;;;;;0.55;0.40;;;20.80;51.00;;;;;;6244622;28;20026;-67
2022/05/09 06:40:39;;;;;;;1.55;0.70;;;20.80;51.00;;;;;;6243839;28;20065;-67
2022/05/09 06:43:39;;;;;;;1.13;0.52;;;20.80;50.90;;;;;;6264940;28;20070;-67
2022/05/09 06:46:40;;;;;;;0.70;0.60;;;20.80;50.90;;;;;;6269241;28;20036;-67
2022/05/09 06:49:41;;;;;;;1.05;0.60;;;20.80;51.00;;;;;;6251401;28;20025;-67
2022/05/09 06:52:42;;;;;;;0.85;0.60;;;20.80;50.90;;;;;;6250784;28;20373;-67
2022/05/09 06:55:45;;;;;;;0.70;0.50;;;20.80;51.00;;;;;;6268423;28;20036;-67
2022/05/09 06:58:45;;;;;;;0.60;0.55;;;20.80;51.00;;;;;;6269123;28;20074;-67
2022/05/09 07:01:48;;;;;;;0.82;0.50;;;20.70;50.90;;;;;;6268280;28;20025;-69
2022/05/09 07:04:49;;;;;;;0.80;0.50;;;20.70;50.90;;;;;;6268907;28;20052;-68
2022/05/09 07:07:49;;;;;;;1.45;0.50;;;20.70;50.90;;;;;;6268539;28;20033;-68
2022/05/09 07:10:51;;;;;;;0.88;0.60;;;20.70;50.90;;;;;;6268442;28;20045;-67
2022/05/09 07:13:51;;;;;;;0.52;0.38;;;20.70;50.90;;;;;;6268970;28;20025;-67
2022/05/09 07:16:52;;;;;;;0.70;0.50;;;20.70;51.00;;;;;;6268003;28;20043;-67
2022/05/09 07:19:52;;;;;;;0.82;0.50;;;20.70;50.90;;;;;;6268211;28;20439;-67
2022/05/09 07:22:55;;;;;;;1.23;0.50;;;20.70;51.00;;;;;;6268560;28;20025;-67
2022/05/09 07:25:56;;;;;;;0.82;0.60;;;20.70;51.00;;;;;;6250304;28;20057;-67
2022/05/09 07:28:58;;;;;;;0.85;0.57;;;20.70;51.00;;;;;;6268425;28;20021;-68
2022/05/09 07:31:59;;;;;;;0.70;0.60;;;20.70;51.10;;;;;;6245430;28;20119;-67
2022/05/09 07:34:59;;;;;;;1.10;0.50;;;20.70;51.00;;;;;;6249182;28;20764;-67
2022/05/09 07:38:00;;;;;;;1.45;0.60;;;20.70;51.00;;;;;;6268464;28;20044;-67
2022/05/09 07:41:00;;;;;;;0.73;0.60;;;20.70;51.10;;;;;;6268514;28;20036;-66
2022/05/09 07:44:01;;;;;;;0.80;0.60;;;20.70;51.00;;;;;;6268092;28;20445;-66
2022/05/09 07:47:01;;;;;;;0.77;0.50;;;20.70;51.10;;;;;;6267139;28;20021;-67
2022/05/09 07:50:02;;;;;;;1.42;0.68;;;20.70;51.10;;;;;;6264183;28;20025;-66
2022/05/09 07:53:13;;;;;;;0.88;0.60;;;20.70;51.00;;;;;;6252879;28;20018;-67
2022/05/09 07:56:14;;;;;;;1.42;0.80;;;20.70;51.10;;;;;;6272328;28;20020;-66
2022/05/09 07:59:17;;;;;;;1.05;0.60;;;20.70;51.90;;;;;;6271950;28;20079;-66
2022/05/09 08:02:18;;;;;;;1.10;0.70;;;20.70;51.30;;;;;;6272075;28;20028;-65
2022/05/09 08:05:19;;;;;;;1.65;0.60;;;20.70;51.50;;;;;;6254640;28;20028;-67
2022/05/09 08:08:19;;;;;;;0.70;0.57;;;20.80;51.40;;;;;;6264336;28;20029;-66
2022/05/09 08:11:21;;;;;;;1.17;0.50;;;20.70;51.30;;;;;;6257788;28;20609;-67
2022/05/09 08:14:21;;;;;;;5.78;0.60;;;20.70;51.30;;;;;;6247659;28;20029;-64
2022/05/09 08:17:22;;;;;;;1.50;0.80;;;20.70;51.30;;;;;;6270927;28;20025;-66
2022/05/09 08:20:23;;;;;;;0.95;0.60;;;20.70;51.30;;;;;;6253327;28;20515;-67
2022/05/09 08:23:24;;;;;;;1.10;0.70;;;20.70;51.40;;;;;;6271398;28;20104;-65
2022/05/09 08:26:25;;;;;;;1.83;0.85;;;20.70;51.40;;;;;;6270141;28;20032;-67
2022/05/09 08:29:25;;;;;;;0.93;0.65;;;20.70;51.40;;;;;;6268399;28;20028;-67
2022/05/09 08:32:27;;;;;;;0.65;0.50;;;20.70;51.40;;;;;;6245742;28;20037;-67
2022/05/09 08:35:28;;;;;;;0.98;0.70;;;20.70;51.40;;;;;;6227541;28;20691;-66
2022/05/09 08:38:28;;;;;;;1.20;0.82;;;20.70;51.50;;;;;;6227817;28;20029;-67
2022/05/09 08:41:39;;;;;;;0.75;0.50;;;20.70;51.40;;;;;;6245084;28;20025;-67
2022/05/09 08:44:49;;;;;;;0.60;0.47;;;20.70;51.40;;;;;;6257325;28;20032;-66
2022/05/09 08:48:14;;;;;;;0.85;0.52;;;20.70;51.40;;;;;;6269930;28;20021;-67
2022/05/09 08:51:38;;;;;;;0.65;0.65;;;20.70;51.40;;;;;;6270210;28;20023;-67
2022/05/09 08:54:40;;;;;;;0.93;0.57;;;20.70;51.40;;;;;;6269902;28;20492;-66
2022/05/09 08:57:47;;;;;;;1.83;0.60;;;20.70;51.40;;;;;;6252014;28;20021;-67
2022/05/09 09:00:49;;;;;;;0.65;0.55;;;20.70;51.40;;;;;;6251564;28;20017;-66
2022/05/09 09:04:03;;;;;;;0.80;0.57;;;20.70;51.40;;;;;;6269739;28;20108;-66
2022/05/09 09:07:42;;;;;;;1.00;0.70;;;20.70;51.40;;;;;;6251728;28;20395;-67
2022/05/09 09:10:55;;;;;;;0.60;0.57;;;20.70;51.40;;;;;;6241534;28;20053;-67
2022/05/09 09:14:18;;;;;;;0.88;0.70;;;20.70;51.40;;;;;;6244755;28;20384;-67
2022/05/09 09:17:41;;;;;;;0.80;0.65;;;20.70;51.40;;;;;;6244842;28;20036;-66
2022/05/09 09:20:54;;;;;;;4.20;0.68;;;20.70;51.40;;;;;;6239037;28;20423;-67
2022/05/09 09:24:25;;;;;;;0.57;0.55;;;20.70;51.40;;;;;;6268498;28;20284;-67
2022/05/09 09:27:47;;;;;;;1.65;0.88;;;20.70;51.40;;;;;;6269261;28;20032;-67
2022/05/09 09:30:50;;;;;;;2.65;1.23;;;20.70;51.50;;;;;;6255644;28;20566;-67
2022/05/09 09:34:14;;;;;;;3.65;1.25;;;20.70;49.00;;;;;;6226740;28;20099;-70
2022/05/09 09:37:35;;;;;;;0.82;0.75;;;20.70;48.00;;;;;;6227113;28;20021;-68
2022/05/09 09:40:37;;;;;;;2.67;0.95;;;20.70;50.10;;;;;;6244306;28;20025;-69
2022/05/09 09:43:38;;;;;;;7.20;1.85;;;20.60;48.50;;;;;;6247597;28;20017;-68
2022/05/09 09:47:03;;;;;;;7.88;2.08;;;20.60;48.10;;;;;;6250796;28;20039;-68
2022/05/09 09:50:13;;;;;;;5.55;2.03;;;20.60;47.00;;;;;;6268152;28;20068;-68
2022/05/09 09:53:34;;;;;;;9.07;2.30;;;20.60;48.40;;;;;;6250905;28;20150;-68
2022/05/09 09:56:36;;;;;;;7.57;2.38;;;20.70;46.20;;;;;;6251575;28;20146;-69
2022/05/09 09:59:37;;;;;;;4.93;2.40;;;20.60;46.10;;;;;;6251083;28;20048;-69
2022/05/09 10:02:37;;;;;;;12.48;2.35;;;20.60;46.00;;;;;;6268690;28;20037;-69
2022/05/09 10:05:39;;;;;;;8.25;2.53;;;20.70;46.20;;;;;;6268933;28;20048;-68
2022/05/09 10:08:39;;;;;;;10.98;2.80;;;20.60;46.00;;;;;;6268836;28;20396;-68
2022/05/09 10:11:40;;;;;;;12.40;2.92;;;20.60;45.40;;;;;;6233312;28;20033;-68
2022/05/09 10:14:41;;;;;;;6.70;2.30;;;20.60;45.10;;;;;;6243323;28;20438;-69
2022/05/09 10:17:42;;;;;;;8.05;2.63;;;20.60;45.80;;;;;;6242332;28;20026;-68
2022/05/09 10:20:43;;;;;;;8.98;2.58;;;20.60;44.60;;;;;;6250051;28;20025;-68
2022/05/09 10:27:20;;;;;;;7.72;2.88;;;20.60;44.90;;;;;;6266681;28;20387;-67
2022/05/09 10:30:22;;;;;;;10.55;3.17;;;20.60;43.60;;;;;;6260054;28;20036;-66
2022/05/09 10:33:32;;;;;;;7.45;2.70;;;20.60;43.60;;;;;;6249365;28;20603;-67
2022/05/09 10:36:43;;;;;;;8.40;2.88;;;20.70;44.60;;;;;;6267073;28;20025;-68
2022/05/09 10:39:51;;;;;;;8.55;2.88;;;20.70;44.80;;;;;;6267454;28;20032;-68
2022/05/09 10:43:23;;;;;;;4.47;2.28;;;20.70;45.90;;;;;;6266105;28;20036;-68
2022/05/09 10:46:42;;;;;;;12.60;3.05;;;20.70;46.40;;;;;;6259552;28;20090;-66
2022/05/09 10:50:10;;;;;;;6.20;2.30;;;20.70;46.80;;;;;;6241629;28;20490;-67
2022/05/09 10:53:19;;;;;;;4.75;2.22;;;20.70;47.20;;;;;;6238383;28;20443;-66
2022/05/09 10:56:30;;;;;;;6.20;2.15;;;20.70;47.50;;;;;;6262534;28;20077;-67
2022/05/09 10:59:37;;;;;;;3.53;1.75;;;20.70;47.80;;;;;;6258119;28;20020;-68
2022/05/09 11:03:00;;;;;;;6.32;1.83;;;20.70;47.90;;;;;;6258426;28;20021;-68
2022/05/09 11:06:25;;;;;;;4.15;1.92;;;20.70;48.00;;;;;;6260584;28;20021;-68
2022/05/09 11:10:03;;;;;;;5.68;2.00;;;20.70;48.30;;;;;;6258439;28;20098;-67
2022/05/09 11:13:34;;;;;;;6.18;1.92;;;20.70;48.60;;;;;;6260162;28;20090;-68
2022/05/09 11:16:50;;;;;;;4.63;2.03;;;20.70;48.60;;;;;;6243511;28;20056;-67
2022/05/09 11:20:08;;;;;;;5.05;1.80;;;20.70;49.00;;;;;;6265701;28;20083;-67
2022/05/09 11:23:32;;;;;;;3.88;1.95;;;20.70;49.10;;;;;;6258364;28;20037;-67
2022/05/09 11:26:47;;;;;;;4.28;1.98;;;20.80;48.90;;;;;;6244684;28;20025;-67
2022/05/09 11:30:19;;;;;;;4.78;1.95;;;20.80;48.80;;;;;;6251084;28;20021;-67
2022/05/09 11:33:45;;;;;;;5.25;1.85;;;20.80;48.70;;;;;;6273248;28;20526;-66
2022/05/09 11:37:15;;;;;;;3.88;2.00;;;20.90;48.70;;;;;;6273126;28;20472;-66
2022/05/09 11:40:31;;;;;;;4.50;1.85;;;20.90;48.50;;;;;;6251156;28;20029;-67
2022/05/09 11:43:53;;;;;;;3.22;1.70;;;20.80;48.90;;;;;;6248617;28;20502;-67
2022/05/09 11:47:13;;;;;;;3.75;1.80;;;20.80;49.10;;;;;;6248787;28;20097;-68
2022/05/09 11:50:50;;;;;;;2.65;1.60;;;20.80;49.20;;;;;;6230725;28;20108;-67
2022/05/09 11:53:57;;;;;;;3.85;1.42;;;20.80;49.30;;;;;;6269963;28;20026;-68
2022/05/09 11:57:03;;;;;;;4.78;1.88;;;20.80;49.40;;;;;;6273116;28;20028;-67
2022/05/09 12:00:09;;;;;;;3.72;1.88;;;20.80;49.20;;;;;;6255296;28;20116;-67
2022/05/09 12:03:10;;;;;;;2.85;1.67;;;20.70;49.30;;;;;;6269294;28;20028;-66
2022/05/09 12:06:36;;;;;;;2.83;1.55;;;20.70;49.60;;;;;;6250983;28;20083;-68
2022/05/09 12:10:03;;;;;;;2.05;1.35;;;20.80;49.60;;;;;;6272243;28;20075;-67
2022/05/09 12:13:34;;;;;;;2.97;1.45;;;20.70;49.50;;;;;;6272584;28;20017;-67
2022/05/09 12:16:37;;;;;;;4.97;1.65;;;20.70;49.50;;;;;;6253479;28;20027;-68
2022/05/09 12:19:38;;;;;;;2.78;1.50;;;20.70;49.60;;;;;;6269256;28;20087;-68
2022/05/09 12:22:47;;;;;;;3.83;1.60;;;20.70;49.60;;;;;;6265130;28;20029;-67
2022/05/09 12:25:59;;;;;;;3.00;1.33;;;20.70;49.60;;;;;;6266149;28;20018;-67
2022/05/09 12:29:07;;;;;;;2.22;1.20;;;20.70;49.70;;;;;;6271789;28;20021;-68
2022/05/09 12:32:08;;;;;;;1.95;1.20;;;20.70;49.60;;;;;;6271857;28;20484;-68
2022/05/09 12:35:08;;;;;;;3.08;1.30;;;20.70;49.60;;;;;;6246010;28;20029;-67
2022/05/09 12:38:13;;;;;;;4.22;1.25;;;20.70;49.80;;;;;;6253048;28;20036;-66
2022/05/09 12:41:17;;;;;;;3.72;1.38;;;20.70;49.70;;;;;;6272536;28;20039;-67
2022/05/09 12:44:19;;;;;;;3.00;1.35;;;20.70;50.10;;;;;;6271916;28;20078;-67
2022/05/09 12:47:28;;;;;;;3.20;1.58;;;20.80;50.00;;;;;;6269073;28;20036;-67
2022/05/09 12:50:34;;;;;;;4.18;1.38;;;20.80;49.60;;;;;;6267361;28;20021;-67
2022/05/09 12:53:36;;;;;;;9.13;1.58;;;20.80;50.10;;;;;;6271838;28;20103;-67
2022/05/09 12:56:39;;;;;;;2.53;1.17;;;20.80;50.80;;;;;;6265466;28;20032;-68
2022/05/09 12:59:48;;;;;;;4.18;1.40;;;20.80;50.10;;;;;;6261857;28;20021;-68
2022/05/09 13:02:49;;;;;;;2.97;1.23;;;20.70;50.00;;;;;;6256396;28;20080;-68
2022/05/09 13:05:50;;;;;;;4.38;1.17;;;20.70;49.70;;;;;;6268339;28;20100;-68
2022/05/09 13:08:51;;;;;;;2.75;1.13;;;20.70;49.70;;;;;;6270527;28;20053;-70
2022/05/09 13:12:01;;;;;;;1.98;1.40;;;20.70;50.00;;;;;;6271030;28;20017;-68
2022/05/09 13:15:13;;;;;;;3.40;1.13;;;20.70;49.80;;;;;;6237666;28;20033;-68
2022/05/09 13:18:18;;;;;;;6.00;1.25;;;20.70;49.90;;;;;;6247192;28;20100;-68
2022/05/09 13:21:27;;;;;;;3.47;1.30;;;20.70;49.90;;;;;;6243056;28;20029;-69
2022/05/09 13:24:30;;;;;;;2.97;1.15;;;20.70;50.00;;;;;;6270355;28;20057;-68
2022/05/09 13:27:31;;;;;;;3.05;1.00;;;20.70;50.00;;;;;;6270437;28;20045;-67
2022/05/09 13:30:34;;;;;;;2.10;1.30;;;20.70;50.00;;;;;;6263263;28;20037;-69
2022/05/09 13:33:35;;;;;;;1.95;1.13;;;20.70;50.00;;;;;;6270560;28;20049;-68
2022/05/09 13:36:39;;;;;;;1.67;1.10;;;20.70;50.00;;;;;;6271494;28;20027;-68
2022/05/09 13:39:42;;;;;;;1.42;1.08;;;20.70;50.00;;;;;;6252741;28;20036;-68
2022/05/09 13:42:46;;;;;;;3.17;1.42;;;20.70;50.00;;;;;;6270882;28;20420;-68
2022/05/09 13:45:47;;;;;;;1.92;1.17;;;20.70;50.00;;;;;;6252856;28;20032;-71
2022/05/09 13:48:58;;;;;;;1.23;0.90;;;20.70;50.10;;;;;;6270192;28;20025;-68
2022/05/09 13:51:58;;;;;;;2.03;0.93;;;20.70;50.10;;;;;;6244832;28;20029;-68
2022/05/09 13:55:01;;;;;;;1.80;1.20;;;20.70;50.00;;;;;;6270248;28;20412;-68
2022/05/09 13:58:04;;;;;;;2.33;1.23;;;20.70;50.10;;;;;;6252422;28;20033;-68
2022/05/09 14:01:06;;;;;;;2.05;1.38;;;20.70;50.10;;;;;;6245395;28;20029;-68
2022/05/09 14:04:09;;;;;;;2.60;1.10;;;20.70;50.10;;;;;;6245864;28;20484;-69
2022/05/09 14:10:33;;;;;;;1.77;1.13;;;20.70;50.10;;;;;;6269718;28;20061;-69
2022/05/09 14:13:46;;;;;;;1.90;0.98;;;20.70;50.10;;;;;;6270315;28;20025;-68
2022/05/09 14:16:57;;;;;;;1.40;0.90;;;20.70;50.20;;;;;;6251392;28;20029;-67
2022/05/09 14:20:01;;;;;;;1.20;1.00;;;20.70;50.20;;;;;;6250540;28;20024;-70
2022/05/09 14:23:03;;;;;;;1.42;0.90;;;20.70;50.20;;;;;;6244210;28;20547;-68
2022/05/09 14:29:38;;;;;;;1.88;1.10;;;20.70;50.20;;;;;;6268165;28;20383;-67
2022/05/09 14:32:50;;;;;;;2.00;1.02;;;20.70;50.30;;;;;;6253745;28;20029;-68
2022/05/09 14:35:51;;;;;;;0.85;0.70;;;20.70;50.30;;;;;;6251677;28;20029;-68
2022/05/09 14:38:57;;;;;;;1.85;1.02;;;20.70;50.30;;;;;;6268498;28;20399;-68
2022/05/09 14:42:18;;;;;;;1.10;0.90;;;20.60;50.20;;;;;;6244546;28;20039;-68
2022/05/09 14:45:28;;;;;;;1.20;0.85;;;20.60;50.20;;;;;;6269212;28;20017;-68
2022/05/09 14:48:33;;;;;;;1.88;0.85;;;20.60;50.10;;;;;;6269754;28;20017;-67
2022/05/09 14:51:33;;;;;;;;;;;20.60;50.20;;;;;;6269599;28;20127;-68
2022/05/09 14:54:50;;;;;;;1.50;0.80;;;20.70;50.30;;;;;;6251975;28;19909;-66
2022/05/09 14:57:53;;;;;;;1.17;0.80;;;20.60;50.20;;;;;;6269366;28;20029;-67
2022/05/09 15:01:04;;;;;;;1.50;1.08;;;20.60;50.20;;;;;;6270274;28;20025;-68
2022/05/09 15:04:05;;;;;;;1.55;0.90;;;20.60;50.30;;;;;;6275265;28;20021;-70
2022/05/09 15:07:06;;;;;;;1.52;0.80;;;20.60;50.30;;;;;;6274455;28;20059;-68
2022/05/09 15:10:07;;;;;;;1.83;1.10;;;20.60;50.30;;;;;;6273361;28;20072;-70
2022/05/09 15:13:13;;;;;;;1.15;0.73;;;20.60;50.30;;;;;;6274096;28;20027;-68
2022/05/09 15:16:17;;;;;;;1.75;0.85;;;20.60;50.30;;;;;;6274357;28;20029;-68
2022/05/09 15:19:26;;;;;;;2.47;0.80;;;20.60;50.30;;;;;;6256385;28;20114;-69
2022/05/09 15:22:27;;;;;;;4.80;1.00;;;20.60;50.30;;;;;;6273218;28;20033;-67
2022/05/09 15:25:28;;;;;;;0.70;0.68;;;20.60;50.30;;;;;;6273823;28;20506;-69
2022/05/09 15:28:30;;;;;;;1.38;0.98;;;20.60;50.30;;;;;;6274062;28;20025;-68
2022/05/09 15:31:32;;;;;;;2.30;1.02;;;20.60;50.30;;;;;;6254925;28;20025;-68
2022/05/09 15:34:33;;;;;;;1.20;0.93;;;20.60;50.30;;;;;;6249153;28;20440;-68
2022/05/09 15:37:34;;;;;;;1.60;1.05;;;20.60;50.30;;;;;;6249100;28;20037;-69
2022/05/09 15:40:40;;;;;;;1.15;0.82;;;20.60;50.40;;;;;;6248827;28;20057;-69
2022/05/09 15:43:46;;;;;;;0.88;0.88;;;20.60;50.30;;;;;;6248856;28;20051;-68
2022/05/09 15:46:47;;;;;;;1.00;0.70;;;20.60;50.40;;;;;;6231173;28;20029;-68
2022/05/09 15:49:47;;;;;;;1.20;0.88;;;20.60;50.30;;;;;;6230715;28;20071;-66
2022/05/09 15:52:48;;;;;;;2.10;0.88;;;20.60;50.30;;;;;;6244901;28;20021;-68
2022/05/09 15:55:53;;;;;;;1.60;1.05;;;20.60;50.40;;;;;;6272824;28;20054;-68
2022/05/09 15:58:55;;;;;;;1.70;0.77;;;20.60;50.40;;;;;;6248605;28;20048;-68
2022/05/09 16:02:00;;;;;;;1.67;0.70;;;20.60;50.40;;;;;;6246757;28;20025;-68
2022/05/09 16:05:01;;;;;;;2.83;0.80;;;20.60;50.40;;;;;;6247119;28;20024;-68
2022/05/09 16:14:25;;;;;;;1.10;0.70;;;20.60;50.40;;;;;;6270644;28;20098;-68
2022/05/09 16:17:26;;;;;;;1.35;0.90;;;20.60;50.40;;;;;;6270830;28;20033;-68
2022/05/09 16:20:26;;;;;;;1.00;0.70;;;20.60;50.40;;;;;;6270729;28;20028;-68
2022/05/09 16:23:27;;;;;;;0.98;0.70;;;20.60;50.40;;;;;;6245231;28;20130;-67
2022/05/09 16:26:31;;;;;;;0.60;0.60;;;20.60;50.40;;;;;;6271293;28;20048;-68
2022/05/09 16:29:32;;;;;;;1.10;0.80;;;20.60;50.40;;;;;;6267799;28;20396;-68